createdAt,value
2022-12-26T00:01:26.272Z,71.08
2022-12-26T00:03:57.214Z,70.90
2022-12-26T00:06:28.698Z,70.79
2022-12-26T00:08:57.959Z,70.97
2022-12-26T00:11:26.674Z,70.93
2022-12-26T00:13:56.016Z,70.52
2022-12-26T00:16:24.810Z,70.75
2022-12-26T00:18:53.908Z,70.61
2022-12-26T00:21:27.426Z,71.06
2022-12-26T00:23:55.875Z,70.66
2022-12-26T00:26:25.655Z,70.98
2022-12-26T00:28:55.501Z,70.91
2022-12-26T00:31:24.840Z,71.19
2022-12-26T00:33:53.041Z,70.97
2022-12-26T00:36:24.070Z,71.05
2022-12-26T00:38:52.520Z,71.21
2022-12-26T00:41:22.031Z,70.43
2022-12-26T00:43:52.079Z,70.81
2022-12-26T00:46:20.678Z,70.66
2022-12-26T00:48:48.705Z,70.70
2022-12-26T00:51:17.142Z,70.78
2022-12-26T00:53:47.067Z,70.64
2022-12-26T00:56:15.757Z,70.61
2022-12-26T00:58:44.962Z,71.18
2022-12-26T01:01:16.852Z,71.24
2022-12-26T01:03:46.448Z,71.26
2022-12-26T01:06:15.215Z,71.22
2022-12-26T01:08:43.338Z,71.14
2022-12-26T01:11:14.693Z,70.66
2022-12-26T01:13:43.039Z,70.66
2022-12-26T01:16:10.970Z,71.23
2022-12-26T01:18:39.281Z,71.07
2022-12-26T01:21:09.420Z,70.75
2022-12-26T01:23:37.820Z,71.09
2022-12-26T01:26:17.048Z,70.43
2022-12-26T01:28:49.397Z,70.55
2022-12-26T01:31:18.033Z,70.70
2022-12-26T01:33:46.118Z,70.72
2022-12-26T01:36:14.539Z,70.76
2022-12-26T01:38:42.422Z,70.75
2022-12-26T01:41:20.756Z,70.53
2022-12-26T01:43:52.644Z,70.56
2022-12-26T01:46:23.153Z,70.67
2022-12-26T01:48:52.331Z,70.89
2022-12-26T01:51:22.102Z,70.56
2022-12-26T01:53:53.949Z,70.65
2022-12-26T01:56:24.993Z,70.49
2022-12-26T01:59:01.617Z,70.88
2022-12-26T02:01:32.946Z,70.95
2022-12-26T02:04:21.382Z,70.82
2022-12-26T02:06:49.452Z,70.68
2022-12-26T02:09:17.681Z,71.19
2022-12-26T02:12:34.237Z,70.88
2022-12-26T02:14:40.791Z,70.80
2022-12-26T02:17:09.280Z,70.63
2022-12-26T02:19:46.556Z,70.41
2022-12-26T02:22:48.664Z,70.68
2022-12-26T02:25:37.322Z,70.32
2022-12-26T02:28:42.285Z,70.45
2022-12-26T02:31:15.238Z,70.22
2022-12-26T02:34:00.560Z,70.31
2022-12-26T02:36:47.692Z,70.38
2022-12-26T02:39:45.455Z,70.33
2022-12-26T02:42:25.812Z,69.97
2022-12-26T02:45:18.031Z,70.41
2022-12-26T02:47:54.981Z,70.13
2022-12-26T02:50:50.848Z,70.01
2022-12-26T02:53:39.376Z,69.99
2022-12-26T02:56:43.266Z,69.70
2022-12-26T02:59:56.469Z,70.11
2022-12-26T03:02:47.201Z,69.97
2022-12-26T03:05:42.526Z,70.18
2022-12-26T03:08:32.557Z,70.58
2022-12-26T03:11:18.126Z,70.87
2022-12-26T03:13:47.569Z,70.41
2022-12-26T03:16:34.792Z,71.16
2022-12-26T03:19:08.964Z,71.06
2022-12-26T03:21:43.530Z,71.08
2022-12-26T03:24:14.339Z,70.81
2022-12-26T03:26:47.755Z,71.24
2022-12-26T03:29:35.771Z,71.12
2022-12-26T03:32:05.814Z,71.05
2022-12-26T03:34:34.357Z,70.82
2022-12-26T03:37:48.680Z,71.12
2022-12-26T03:41:03.196Z,71.31
2022-12-26T03:44:05.137Z,71.27
2022-12-26T03:47:01.338Z,70.83
2022-12-26T03:49:47.303Z,70.78
2022-12-26T03:52:40.163Z,70.69
2022-12-26T03:55:34.404Z,70.51
2022-12-26T03:58:28.992Z,71.02
2022-12-26T04:01:17.362Z,70.64
2022-12-26T04:04:03.673Z,70.71
2022-12-26T04:06:55.412Z,71.02
2022-12-26T04:09:49.114Z,70.80
2022-12-26T04:12:41.355Z,70.84
2022-12-26T04:15:35.216Z,70.84
2022-12-26T04:18:28.264Z,71.09
2022-12-26T04:21:08.676Z,71.20
2022-12-26T04:24:02.552Z,71.01
2022-12-26T04:26:55.231Z,70.87
2022-12-26T04:29:41.217Z,70.70
2022-12-26T04:32:34.809Z,71.15
2022-12-26T04:35:24.860Z,71.04
2022-12-26T04:38:13.240Z,70.67
2022-12-26T04:41:05.564Z,70.56
2022-12-26T04:43:52.116Z,71.15
2022-12-26T04:46:22.129Z,70.58
2022-12-26T04:49:10.652Z,70.67
2022-12-26T04:51:39.626Z,70.75
2022-12-26T04:54:07.976Z,70.67
2022-12-26T04:56:35.853Z,70.82
2022-12-26T04:59:03.893Z,70.42
2022-12-26T05:01:49.308Z,70.51
2022-12-26T05:04:37.133Z,70.25
2022-12-26T05:07:24.830Z,70.21
2022-12-26T05:09:55.291Z,70.46
2022-12-26T05:12:23.119Z,70.38
2022-12-26T05:14:51.151Z,70.27
2022-12-26T05:17:36.980Z,70.14
2022-12-26T05:20:24.584Z,70.02
2022-12-26T05:23:11.416Z,69.90
2022-12-26T05:26:00.409Z,69.95
2022-12-26T05:28:43.559Z,69.62
2022-12-26T05:31:13.128Z,69.98
2022-12-26T05:33:59.314Z,70.05
2022-12-26T05:36:31.952Z,70.10
2022-12-26T05:39:01.023Z,70.14
2022-12-26T05:41:29.115Z,70.32
2022-12-26T05:43:56.980Z,70.44
2022-12-26T05:46:25.219Z,70.51
2022-12-26T05:48:53.171Z,70.16
2022-12-26T05:51:21.364Z,70.04
2022-12-26T05:53:50.848Z,69.83
2022-12-26T05:56:19.911Z,70.07
2022-12-26T05:58:48.601Z,69.62
2022-12-26T06:01:18.544Z,69.73
2022-12-26T06:03:49.873Z,69.88
2022-12-26T06:06:18.635Z,70.08
2022-12-26T06:08:51.596Z,69.40
2022-12-26T06:11:20.041Z,69.34
2022-12-26T06:13:48.007Z,69.32
2022-12-26T06:16:18.566Z,69.45
2022-12-26T06:18:46.845Z,69.51
2022-12-26T06:21:17.018Z,69.44
2022-12-26T06:23:44.875Z,69.52
2022-12-26T06:26:14.902Z,69.30
2022-12-26T06:28:44.449Z,69.57
2022-12-26T06:31:14.469Z,68.84
2022-12-26T06:33:43.012Z,69.39
2022-12-26T06:36:13.187Z,68.61
2022-12-26T06:38:41.426Z,69.18
2022-12-26T06:41:11.634Z,68.64
2022-12-26T06:43:41.380Z,69.30
2022-12-26T06:46:13.914Z,68.72
2022-12-26T06:48:42.198Z,69.13
2022-12-26T06:51:14.022Z,69.13
2022-12-26T06:53:42.387Z,69.19
2022-12-26T06:56:12.290Z,68.71
2022-12-26T06:58:42.658Z,69.09
2022-12-26T07:01:12.105Z,69.00
2022-12-26T07:03:46.638Z,68.67
2022-12-26T07:06:23.953Z,68.36
2022-12-26T07:08:52.686Z,68.72
2022-12-26T07:11:23.018Z,68.59
2022-12-26T07:13:52.853Z,68.57
2022-12-26T07:16:20.704Z,68.68
2022-12-26T07:18:48.640Z,68.43
2022-12-26T07:21:17.436Z,68.50
2022-12-26T07:23:45.413Z,68.28
2022-12-26T07:26:13.753Z,68.44
2022-12-26T07:28:41.474Z,68.18
2022-12-26T07:31:10.851Z,67.83
2022-12-26T07:33:39.298Z,68.30
2022-12-26T07:36:08.070Z,68.30
2022-12-26T07:38:36.232Z,68.33
2022-12-26T07:41:25.049Z,68.12
2022-12-26T07:43:52.979Z,67.68
2022-12-26T07:46:22.486Z,67.47
2022-12-26T07:48:50.970Z,67.59
2022-12-26T07:51:18.705Z,67.97
2022-12-26T07:53:46.503Z,67.42
2022-12-26T07:56:15.003Z,67.24
2022-12-26T07:58:42.918Z,67.63
2022-12-26T08:01:11.171Z,67.72
2022-12-26T08:03:41.403Z,67.60
2022-12-26T08:06:10.845Z,67.17
2022-12-26T08:08:41.074Z,66.44
2022-12-26T08:11:15.963Z,66.66
2022-12-26T08:13:43.899Z,66.93
2022-12-26T08:16:14.943Z,66.93
2022-12-26T08:18:45.485Z,66.68
2022-12-26T08:21:13.942Z,66.84
2022-12-26T08:23:41.982Z,66.90
2022-12-26T08:26:12.564Z,66.52
2022-12-26T08:28:40.639Z,66.53
2022-12-26T08:31:09.270Z,66.78
2022-12-26T08:33:37.845Z,66.29
2022-12-26T08:36:10.238Z,66.38
2022-12-26T08:38:39.428Z,66.27
2022-12-26T08:41:07.666Z,66.95
2022-12-26T08:46:24.550Z,67.04
2022-12-26T08:48:53.104Z,66.32
2022-12-26T08:51:24.174Z,66.07
2022-12-26T08:53:53.586Z,65.92
2022-12-26T08:56:25.326Z,65.67
2022-12-26T08:58:53.472Z,66.23
2022-12-26T09:01:23.875Z,65.77
2022-12-26T09:03:54.211Z,66.17
2022-12-26T09:06:24.474Z,65.91
2022-12-26T09:08:52.937Z,65.99
2022-12-26T09:11:22.672Z,66.29
2022-12-26T09:13:51.015Z,65.74
2022-12-26T09:16:20.805Z,65.89
2022-12-26T09:18:49.913Z,65.53
2022-12-26T09:21:18.124Z,65.87
2022-12-26T09:23:47.386Z,66.05
2022-12-26T09:26:16.831Z,65.75
2022-12-26T09:28:46.958Z,66.21
2022-12-26T09:31:16.508Z,65.93
2022-12-26T09:33:44.505Z,65.67
2022-12-26T09:36:15.621Z,66.04
2022-12-26T09:38:43.978Z,66.06
2022-12-26T09:41:34.052Z,66.02
2022-12-26T09:44:07.229Z,65.68
2022-12-26T09:46:40.922Z,65.82
2022-12-26T09:49:13.445Z,65.71
2022-12-26T09:51:45.386Z,66.11
2022-12-26T09:54:20.489Z,65.75
2022-12-26T09:57:11.434Z,66.29
2022-12-26T09:59:46.867Z,66.68
2022-12-26T10:02:20.066Z,66.84
2022-12-26T10:04:49.006Z,66.47
2022-12-26T10:07:25.291Z,66.76
2022-12-26T10:10:01.305Z,66.80
2022-12-26T10:12:56.199Z,66.96
2022-12-26T10:15:41.519Z,67.37
2022-12-26T10:18:28.645Z,67.47
2022-12-26T10:21:10.596Z,67.59
2022-12-26T10:23:40.804Z,67.65
2022-12-26T10:26:14.037Z,68.10
2022-12-26T10:28:48.781Z,68.14
2022-12-26T10:31:22.616Z,67.91
2022-12-26T10:33:57.623Z,68.54
2022-12-26T10:36:34.383Z,68.14
2022-12-26T10:39:04.977Z,68.37
2022-12-26T10:41:40.119Z,68.34
2022-12-26T10:44:11.695Z,67.32
2022-12-26T10:47:21.662Z,67.51
2022-12-26T10:49:50.081Z,67.47
2022-12-26T10:52:19.624Z,68.34
2022-12-26T10:54:52.650Z,67.14
2022-12-26T10:57:42.299Z,67.28
2022-12-26T11:00:20.719Z,67.60
2022-12-26T11:03:03.554Z,66.99
2022-12-26T11:06:06.342Z,66.90
2022-12-26T11:08:24.913Z,67.63
2022-12-26T11:11:04.023Z,67.20
2022-12-26T11:13:36.645Z,67.37
2022-12-26T11:16:06.871Z,67.45
2022-12-26T11:18:37.793Z,67.15
2022-12-26T11:21:23.417Z,66.93
2022-12-26T11:23:52.748Z,66.96
2022-12-26T11:26:24.250Z,67.48
2022-12-26T11:29:07.153Z,67.19
2022-12-26T11:31:37.535Z,67.34
2022-12-26T11:34:09.784Z,66.48
2022-12-26T11:36:40.615Z,66.14
2022-12-26T11:39:23.672Z,64.93
2022-12-26T11:41:52.813Z,64.62
2022-12-26T11:44:25.143Z,63.85
2022-12-26T11:46:58.229Z,63.03
2022-12-26T11:49:31.072Z,63.62
2022-12-26T11:52:02.337Z,63.75
2022-12-26T11:54:34.650Z,63.93
2022-12-26T11:57:14.009Z,63.82
2022-12-26T11:59:42.041Z,62.91
2022-12-26T12:02:33.339Z,63.57
2022-12-26T12:05:07.732Z,62.79
2022-12-26T12:08:05.349Z,63.44
2022-12-26T12:10:49.240Z,62.57
2022-12-26T12:13:35.650Z,62.93
2022-12-26T12:16:14.881Z,62.60
2022-12-26T12:18:53.063Z,61.40
2022-12-26T12:21:31.769Z,62.41
2022-12-26T12:24:30.551Z,62.84
2022-12-26T12:27:05.959Z,62.14
2022-12-26T12:29:46.962Z,62.81
2022-12-26T12:32:19.922Z,61.77
2022-12-26T12:35:06.308Z,60.56
2022-12-26T12:37:43.826Z,60.57
2022-12-26T12:40:28.707Z,60.59
2022-12-26T12:43:06.447Z,60.61
2022-12-26T12:45:36.787Z,60.67
2022-12-26T12:48:37.375Z,60.83
2022-12-26T12:51:12.681Z,59.23
2022-12-26T12:54:02.699Z,59.41
2022-12-26T12:56:42.634Z,59.10
2022-12-26T12:59:21.022Z,60.61
2022-12-26T13:01:52.542Z,59.95
2022-12-26T13:04:26.396Z,59.97
2022-12-26T13:07:00.130Z,59.29
2022-12-26T13:09:31.718Z,59.38
2022-12-26T13:12:04.124Z,59.05
2022-12-26T13:14:36.311Z,59.85
2022-12-26T13:17:11.002Z,58.93
2022-12-26T13:19:47.354Z,58.84
2022-12-26T13:22:26.869Z,59.29
2022-12-26T13:24:58.772Z,60.05
2022-12-26T13:27:31.139Z,59.01
2022-12-26T13:29:58.919Z,58.31
2022-12-26T13:32:28.813Z,58.28
2022-12-26T13:34:58.985Z,57.32
2022-12-26T13:37:57.646Z,57.56
2022-12-26T13:40:30.574Z,56.93
2022-12-26T13:43:20.803Z,56.30
2022-12-26T13:45:57.037Z,56.74
2022-12-26T13:49:08.075Z,55.45
2022-12-26T13:51:54.651Z,56.20
2022-12-26T13:54:26.141Z,56.15
2022-12-26T13:57:40.651Z,56.03
2022-12-26T14:00:17.571Z,54.93
2022-12-26T14:03:42.302Z,55.46
2022-12-26T14:06:40.173Z,55.17
2022-12-26T14:09:30.452Z,56.53
2022-12-26T14:12:12.203Z,55.71
2022-12-26T14:14:54.798Z,56.06
2022-12-26T14:17:37.177Z,55.81
2022-12-26T14:20:19.191Z,56.50
2022-12-26T14:22:57.662Z,56.05
2022-12-26T14:25:34.288Z,55.55
2022-12-26T14:28:11.967Z,55.62
2022-12-26T14:30:56.734Z,55.13
2022-12-26T14:33:30.355Z,55.23
2022-12-26T14:36:09.314Z,55.39
2022-12-26T14:38:47.247Z,54.80
2022-12-26T14:41:33.754Z,54.75
2022-12-26T14:44:12.610Z,55.10
2022-12-26T14:47:02.678Z,54.80
2022-12-26T14:49:44.094Z,55.23
2022-12-26T14:52:41.263Z,55.14
2022-12-26T14:55:49.005Z,55.28
2022-12-26T14:58:42.233Z,54.77
2022-12-26T15:01:51.197Z,54.27
2022-12-26T15:05:03.779Z,55.13
2022-12-26T15:08:14.375Z,54.77
2022-12-26T15:11:09.702Z,53.90
2022-12-26T15:14:01.777Z,52.90
2022-12-26T15:16:47.309Z,51.02
2022-12-26T15:20:07.949Z,51.23
2022-12-26T15:23:03.201Z,51.06
2022-12-26T15:26:00.497Z,51.19
2022-12-26T15:29:16.431Z,50.58
2022-12-26T15:31:53.915Z,49.83
2022-12-26T15:34:46.581Z,50.56
2022-12-26T15:37:25.027Z,49.94
2022-12-26T15:40:03.623Z,50.65
2022-12-26T15:42:44.533Z,50.77
2022-12-26T15:45:28.579Z,50.67
2022-12-26T15:48:04.689Z,51.12
2022-12-26T15:50:43.608Z,50.17
2022-12-26T15:53:22.111Z,50.21
2022-12-26T15:56:08.616Z,50.54
2022-12-26T15:58:54.076Z,50.40
2022-12-26T16:07:24.849Z,51.34
2022-12-26T16:09:55.986Z,51.34
2022-12-26T16:12:29.322Z,51.25
2022-12-26T16:15:16.623Z,51.62
2022-12-26T16:17:49.269Z,51.29
2022-12-26T16:20:41.505Z,50.99
2022-12-26T16:23:14.966Z,50.99
2022-12-26T16:25:48.201Z,51.27
2022-12-26T16:28:18.073Z,51.23
2022-12-26T16:30:46.058Z,51.34
2022-12-26T16:33:16.401Z,51.44
2022-12-26T16:35:46.572Z,51.92
2022-12-26T16:38:18.095Z,51.88
2022-12-26T16:40:48.341Z,52.27
2022-12-26T16:43:30.752Z,52.26
2022-12-26T16:46:03.136Z,52.38
2022-12-26T16:48:33.459Z,52.52
2022-12-26T16:51:08.618Z,52.38
2022-12-26T16:53:45.509Z,52.18
2022-12-26T16:56:26.784Z,52.39
2022-12-26T16:59:04.669Z,52.61
2022-12-26T17:01:34.216Z,52.91
2022-12-26T17:04:05.775Z,53.35
2022-12-26T17:06:37.284Z,52.98
2022-12-26T17:09:08.614Z,52.65
2022-12-26T17:11:39.701Z,53.11
2022-12-26T17:14:16.026Z,53.38
2022-12-26T17:16:44.832Z,53.59
2022-12-26T17:19:19.247Z,53.59
2022-12-26T17:22:20.609Z,53.32
2022-12-26T17:24:51.552Z,53.51
2022-12-26T17:27:23.584Z,53.51
2022-12-26T17:29:57.371Z,53.80
2022-12-26T17:32:31.892Z,53.63
2022-12-26T17:35:06.211Z,53.64
2022-12-26T17:37:34.795Z,53.80
2022-12-26T17:40:20.220Z,54.12
2022-12-26T17:42:56.610Z,54.22
2022-12-26T17:45:57.770Z,54.25
2022-12-26T17:48:26.457Z,54.44
2022-12-26T17:50:58.890Z,54.64
2022-12-26T17:53:30.442Z,54.74
2022-12-26T17:56:03.010Z,54.82
2022-12-26T17:58:32.031Z,55.53
2022-12-26T18:00:59.972Z,55.20
2022-12-26T18:03:28.224Z,55.87
2022-12-26T18:05:57.802Z,55.32
2022-12-26T18:08:29.704Z,55.29
2022-12-26T18:11:02.738Z,55.33
2022-12-26T18:13:31.467Z,55.53
2022-12-26T18:16:00.376Z,55.60
2022-12-26T18:18:35.489Z,55.56
2022-12-26T18:21:05.098Z,55.46
2022-12-26T18:23:35.935Z,55.73
2022-12-26T18:26:09.638Z,55.99
2022-12-26T18:28:37.671Z,55.47
2022-12-26T18:31:05.880Z,55.61
2022-12-26T18:33:33.981Z,55.88
2022-12-26T18:36:07.491Z,55.69
2022-12-26T18:38:36.563Z,55.89
2022-12-26T18:41:08.158Z,55.74
2022-12-26T18:43:35.992Z,64.76
2022-12-26T18:46:03.726Z,59.80
2022-12-26T18:48:31.683Z,57.06
2022-12-26T18:50:59.990Z,56.20
2022-12-26T18:53:28.071Z,55.96
2022-12-26T18:55:55.949Z,55.49
2022-12-26T18:58:25.327Z,55.77
2022-12-26T19:00:53.247Z,55.86
2022-12-26T19:03:21.069Z,55.32
2022-12-26T19:05:49.519Z,55.29
2022-12-26T19:08:17.693Z,55.27
2022-12-26T19:10:47.369Z,55.59
2022-12-26T19:13:15.854Z,56.24
2022-12-26T19:15:49.261Z,55.60
2022-12-26T19:18:17.661Z,55.98
2022-12-26T19:20:46.236Z,56.20
2022-12-26T19:23:14.172Z,56.58
2022-12-26T19:25:42.118Z,56.17
2022-12-26T19:28:09.913Z,56.68
2022-12-26T19:30:39.147Z,57.03
2022-12-26T19:33:09.408Z,56.62
2022-12-26T19:35:37.449Z,57.00
2022-12-26T19:38:05.196Z,57.06
2022-12-26T19:40:33.585Z,56.76
2022-12-26T19:43:01.397Z,57.51
2022-12-26T19:45:29.196Z,57.46
2022-12-26T19:47:58.908Z,56.93
2022-12-26T19:50:28.218Z,57.21
2022-12-26T19:52:56.198Z,57.72
2022-12-26T19:55:24.167Z,57.43
2022-12-26T19:57:52.922Z,57.63
2022-12-26T20:00:21.143Z,57.85
2022-12-26T20:02:49.572Z,57.57
2022-12-26T20:05:17.661Z,57.65
2022-12-26T20:07:47.114Z,57.95
2022-12-26T20:10:15.015Z,57.91
2022-12-26T20:12:43.078Z,57.96
2022-12-26T20:15:11.443Z,57.96
2022-12-26T20:17:39.953Z,58.20
2022-12-26T20:20:08.684Z,57.86
2022-12-26T20:22:36.445Z,58.45
2022-12-26T20:25:09.832Z,58.15
2022-12-26T20:27:37.763Z,58.70
2022-12-26T20:30:06.746Z,58.36
2022-12-26T20:32:34.927Z,57.88
2022-12-26T20:35:02.752Z,58.13
2022-12-26T20:37:32.223Z,58.82
2022-12-26T20:40:01.906Z,58.89
2022-12-26T20:42:31.119Z,58.22
2022-12-26T20:44:58.942Z,58.63
2022-12-26T20:47:27.433Z,58.60
2022-12-26T20:49:55.275Z,58.93
2022-12-26T20:52:23.175Z,59.00
2022-12-26T20:54:51.537Z,58.80
2022-12-26T20:57:19.423Z,59.08
2022-12-26T20:59:48.963Z,58.91
2022-12-26T21:02:17.166Z,58.67
2022-12-26T21:04:46.819Z,58.96
2022-12-26T21:07:14.851Z,59.44
2022-12-26T21:09:46.538Z,59.56
2022-12-26T21:12:14.721Z,59.22
2022-12-26T21:14:42.651Z,62.76
2022-12-26T21:17:12.091Z,60.49
2022-12-26T21:19:40.185Z,59.91
2022-12-26T21:22:09.033Z,59.27
2022-12-26T21:24:36.880Z,59.97
2022-12-26T21:27:05.168Z,59.24
2022-12-26T21:29:35.424Z,59.48
2022-12-26T21:32:04.526Z,59.44
2022-12-26T21:34:36.065Z,59.69
2022-12-26T21:37:21.331Z,60.09
2022-12-26T21:39:51.094Z,60.83
2022-12-26T21:42:19.612Z,60.58
2022-12-26T21:44:47.537Z,60.32
2022-12-26T21:47:15.591Z,60.88
2022-12-26T21:49:44.980Z,61.03
2022-12-26T21:52:12.843Z,60.51
2022-12-26T21:54:58.980Z,60.52
2022-12-26T21:57:27.010Z,60.95
2022-12-26T21:59:58.616Z,60.94
2022-12-26T22:02:46.731Z,61.12
2022-12-26T22:05:19.507Z,61.41
2022-12-26T22:07:48.267Z,61.78
2022-12-26T22:10:30.270Z,61.33
2022-12-26T22:13:02.173Z,61.63
2022-12-26T22:15:47.740Z,61.87
2022-12-26T22:18:16.114Z,61.38
2022-12-26T22:20:46.253Z,61.68
2022-12-26T22:23:14.658Z,61.62
2022-12-26T22:25:45.659Z,62.20
2022-12-26T22:28:16.499Z,61.58
2022-12-26T22:30:49.367Z,61.86
2022-12-26T22:33:18.009Z,61.96
2022-12-26T22:35:47.483Z,61.62
2022-12-26T22:38:15.967Z,61.72
2022-12-26T22:40:43.943Z,62.77
2022-12-26T22:43:11.875Z,63.16
2022-12-26T22:45:42.818Z,63.48
2022-12-26T22:48:10.956Z,62.75
2022-12-26T22:50:38.918Z,62.69
2022-12-26T22:53:08.183Z,63.04
2022-12-26T22:55:36.046Z,63.53
2022-12-26T22:58:04.017Z,63.02
2022-12-26T23:00:34.467Z,63.43
2022-12-26T23:03:02.403Z,63.56
2022-12-26T23:05:30.713Z,63.58
2022-12-26T23:07:59.533Z,63.43
2022-12-26T23:10:29.400Z,63.13
2022-12-26T23:12:57.752Z,63.65
2022-12-26T23:15:28.493Z,63.48
2022-12-26T23:18:21.240Z,63.39
2022-12-26T23:21:15.661Z,63.83
2022-12-26T23:23:43.966Z,62.80
2022-12-26T23:26:13.297Z,63.92
2022-12-26T23:28:58.974Z,63.16
2022-12-26T23:31:26.659Z,63.52
2022-12-26T23:33:54.439Z,63.40
2022-12-26T23:36:22.657Z,63.40
2022-12-26T23:38:50.499Z,63.40
2022-12-26T23:41:19.819Z,63.32
2022-12-26T23:43:47.764Z,62.98
2022-12-26T23:46:15.695Z,63.33
2022-12-26T23:48:46.141Z,63.93
2022-12-26T23:51:14.440Z,63.28
2022-12-26T23:53:42.498Z,63.63
2022-12-26T23:56:11.429Z,63.14
2022-12-26T23:58:42.406Z,63.34
